sensor_id;sensor_type;location;lat;lon;timestamp;temperature;humidity
71754;DHT22;59593;51.716;7.016;2022-11-15T00:00:45;8.80;99.90
71754;DHT22;59593;51.716;7.016;2022-11-15T00:03:16;8.80;99.90
71754;DHT22;59593;51.716;7.016;2022-11-15T00:05:42;8.80;99.90
71754;DHT22;59593;51.716;7.016;2022-11-15T00:08:08;8.80;99.90
71754;DHT22;59593;51.716;7.016;2022-11-15T00:10:34;8.80;99.90
71754;DHT22;59593;51.716;7.016;2022-11-15T00:13:00;8.90;99.90
71754;DHT22;59593;51.716;7.016;2022-11-15T00:15:29;8.90;99.90
71754;DHT22;59593;51.716;7.016;2022-11-15T00:17:54;8.90;99.90
71754;DHT22;59593;51.716;7.016;2022-11-15T00:20:20;8.90;99.90
71754;DHT22;59593;51.716;7.016;2022-11-15T00:22:45;8.90;99.90
71754;DHT22;59593;51.716;7.016;2022-11-15T00:25:11;8.90;99.90
71754;DHT22;59593;51.716;7.016;2022-11-15T00:27:36;9.00;99.90
71754;DHT22;59593;51.716;7.016;2022-11-15T00:30:03;8.90;99.90
71754;DHT22;59593;51.716;7.016;2022-11-15T00:32:32;8.90;99.90
71754;DHT22;59593;51.716;7.016;2022-11-15T00:34:57;9.00;99.90
71754;DHT22;59593;51.716;7.016;2022-11-15T00:37:23;9.00;99.90
71754;DHT22;59593;51.716;7.016;2022-11-15T00:39:48;9.10;99.90
71754;DHT22;59593;51.716;7.016;2022-11-15T00:42:14;9.10;99.90
71754;DHT22;59593;51.716;7.016;2022-11-15T00:44:40;9.10;99.90
71754;DHT22;59593;51.716;7.016;2022-11-15T00:47:05;9.10;99.90
71754;DHT22;59593;51.716;7.016;2022-11-15T00:49:31;9.10;99.90
71754;DHT22;59593;51.716;7.016;2022-11-15T00:51:56;9.10;99.90
71754;DHT22;59593;51.716;7.016;2022-11-15T00:54:22;9.10;99.90
71754;DHT22;59593;51.716;7.016;2022-11-15T00:56:47;9.10;99.90
71754;DHT22;59593;51.716;7.016;2022-11-15T00:59:13;9.10;99.90
71754;DHT22;59593;51.716;7.016;2022-11-15T01:01:38;9.10;99.90
71754;DHT22;59593;51.716;7.016;2022-11-15T01:04:04;9.10;99.90
71754;DHT22;59593;51.716;7.016;2022-11-15T01:06:30;9.10;99.90
71754;DHT22;59593;51.716;7.016;2022-11-15T01:08:55;9.10;99.90
71754;DHT22;59593;51.716;7.016;2022-11-15T01:11:21;9.10;99.90
71754;DHT22;59593;51.716;7.016;2022-11-15T01:13:46;9.10;99.90
71754;DHT22;59593;51.716;7.016;2022-11-15T01:16:15;9.10;99.90
71754;DHT22;59593;51.716;7.016;2022-11-15T01:18:42;9.20;99.90
71754;DHT22;59593;51.716;7.016;2022-11-15T01:21:10;9.20;99.90
71754;DHT22;59593;51.716;7.016;2022-11-15T01:23:36;9.30;99.90
71754;DHT22;59593;51.716;7.016;2022-11-15T01:26:03;9.30;99.90
71754;DHT22;59593;51.716;7.016;2022-11-15T01:28:34;9.20;99.90
71754;DHT22;59593;51.716;7.016;2022-11-15T01:31:03;9.20;99.90
71754;DHT22;59593;51.716;7.016;2022-11-15T01:33:29;9.20;99.90
71754;DHT22;59593;51.716;7.016;2022-11-15T01:35:55;9.20;99.90
71754;DHT22;59593;51.716;7.016;2022-11-15T01:38:21;9.20;99.90
71754;DHT22;59593;51.716;7.016;2022-11-15T01:40:48;9.20;99.90
71754;DHT22;59593;51.716;7.016;2022-11-15T01:43:28;9.30;99.90
71754;DHT22;59593;51.716;7.016;2022-11-15T01:46:15;9.30;99.90
71754;DHT22;59593;51.716;7.016;2022-11-15T01:48:46;9.30;99.90
71754;DHT22;59593;51.716;7.016;2022-11-15T01:51:13;9.30;99.90
71754;DHT22;59593;51.716;7.016;2022-11-15T01:53:45;9.30;99.90
71754;DHT22;59593;51.716;7.016;2022-11-15T01:56:15;9.30;99.90
71754;DHT22;59593;51.716;7.016;2022-11-15T01:58:43;9.40;99.90
71754;DHT22;59593;51.716;7.016;2022-11-15T02:01:11;9.40;99.90
71754;DHT22;59593;51.716;7.016;2022-11-15T02:03:50;9.40;99.90
71754;DHT22;59593;51.716;7.016;2022-11-15T02:06:17;9.40;99.90
71754;DHT22;59593;51.716;7.016;2022-11-15T02:08:44;9.40;99.90
71754;DHT22;59593;51.716;7.016;2022-11-15T02:11:10;9.50;99.90
71754;DHT22;59593;51.716;7.016;2022-11-15T02:13:36;9.50;99.90
71754;DHT22;59593;51.716;7.016;2022-11-15T02:16:09;9.50;99.90
71754;DHT22;59593;51.716;7.016;2022-11-15T02:18:44;9.50;99.90
71754;DHT22;59593;51.716;7.016;2022-11-15T02:21:29;9.50;99.90
71754;DHT22;59593;51.716;7.016;2022-11-15T02:24:24;9.50;99.90
71754;DHT22;59593;51.716;7.016;2022-11-15T02:30:33;9.50;99.90
71754;DHT22;59593;51.716;7.016;2022-11-15T02:33:03;9.50;99.90
71754;DHT22;59593;51.716;7.016;2022-11-15T02:36:29;9.50;99.90
71754;DHT22;59593;51.716;7.016;2022-11-15T02:41:47;9.60;99.90
71754;DHT22;59593;51.716;7.016;2022-11-15T02:44:32;9.60;99.90
71754;DHT22;59593;51.716;7.016;2022-11-15T02:47:12;9.60;99.90
71754;DHT22;59593;51.716;7.016;2022-11-15T02:49:50;9.60;99.90
71754;DHT22;59593;51.716;7.016;2022-11-15T02:52:18;9.60;99.90
71754;DHT22;59593;51.716;7.016;2022-11-15T02:54:59;9.70;99.90
71754;DHT22;59593;51.716;7.016;2022-11-15T03:00:30;9.80;99.90
71754;DHT22;59593;51.716;7.016;2022-11-15T03:05:51;9.70;99.90
71754;DHT22;59593;51.716;7.016;2022-11-15T03:11:17;9.70;99.90
71754;DHT22;59593;51.716;7.016;2022-11-15T03:14:08;9.80;99.90
71754;DHT22;59593;51.716;7.016;2022-11-15T03:19:50;10.00;99.90
71754;DHT22;59593;51.716;7.016;2022-11-15T03:22:19;10.10;99.90
71754;DHT22;59593;51.716;7.016;2022-11-15T03:24:47;10.20;99.90
71754;DHT22;59593;51.716;7.016;2022-11-15T03:27:19;10.10;99.90
71754;DHT22;59593;51.716;7.016;2022-11-15T03:29:51;10.20;99.90
71754;DHT22;59593;51.716;7.016;2022-11-15T03:32:23;10.20;99.90
71754;DHT22;59593;51.716;7.016;2022-11-15T03:37:24;10.50;99.90
71754;DHT22;59593;51.716;7.016;2022-11-15T03:39:50;10.60;99.90
71754;DHT22;59593;51.716;7.016;2022-11-15T03:42:33;10.70;99.90
71754;DHT22;59593;51.716;7.016;2022-11-15T03:45:08;10.70;99.90
71754;DHT22;59593;51.716;7.016;2022-11-15T03:47:54;10.70;99.90
71754;DHT22;59593;51.716;7.016;2022-11-15T03:50:23;10.60;99.90
71754;DHT22;59593;51.716;7.016;2022-11-15T03:52:50;10.50;99.90
71754;DHT22;59593;51.716;7.016;2022-11-15T03:55:18;10.50;99.90
71754;DHT22;59593;51.716;7.016;2022-11-15T03:57:45;10.50;99.90
71754;DHT22;59593;51.716;7.016;2022-11-15T04:00:11;10.50;99.90
71754;DHT22;59593;51.716;7.016;2022-11-15T04:02:37;10.60;99.90
71754;DHT22;59593;51.716;7.016;2022-11-15T04:05:03;10.60;99.90
71754;DHT22;59593;51.716;7.016;2022-11-15T04:07:29;10.60;99.90
71754;DHT22;59593;51.716;7.016;2022-11-15T04:09:55;10.60;99.90
71754;DHT22;59593;51.716;7.016;2022-11-15T04:12:36;10.70;99.90
71754;DHT22;59593;51.716;7.016;2022-11-15T04:15:07;10.70;99.90
71754;DHT22;59593;51.716;7.016;2022-11-15T04:20:00;10.70;99.90
71754;DHT22;59593;51.716;7.016;2022-11-15T04:22:44;10.70;99.90
71754;DHT22;59593;51.716;7.016;2022-11-15T04:25:28;10.80;99.90
71754;DHT22;59593;51.716;7.016;2022-11-15T04:27:54;10.90;99.90
71754;DHT22;59593;51.716;7.016;2022-11-15T04:30:19;10.90;99.90
71754;DHT22;59593;51.716;7.016;2022-11-15T04:32:45;11.00;99.90
71754;DHT22;59593;51.716;7.016;2022-11-15T04:35:10;11.10;99.90
71754;DHT22;59593;51.716;7.016;2022-11-15T04:37:37;11.20;99.90
71754;DHT22;59593;51.716;7.016;2022-11-15T04:40:02;11.30;99.90
71754;DHT22;59593;51.716;7.016;2022-11-15T04:42:28;11.30;99.90
71754;DHT22;59593;51.716;7.016;2022-11-15T04:44:53;11.30;99.90
71754;DHT22;59593;51.716;7.016;2022-11-15T04:47:19;11.50;99.90
71754;DHT22;59593;51.716;7.016;2022-11-15T04:49:45;11.70;99.90
71754;DHT22;59593;51.716;7.016;2022-11-15T04:52:10;11.80;99.90
71754;DHT22;59593;51.716;7.016;2022-11-15T04:54:36;11.80;99.90
71754;DHT22;59593;51.716;7.016;2022-11-15T04:57:01;12.10;99.90
71754;DHT22;59593;51.716;7.016;2022-11-15T04:59:27;12.10;99.90
71754;DHT22;59593;51.716;7.016;2022-11-15T05:01:53;12.00;99.90
71754;DHT22;59593;51.716;7.016;2022-11-15T05:04:18;12.00;99.90
71754;DHT22;59593;51.716;7.016;2022-11-15T05:06:50;12.00;99.90
71754;DHT22;59593;51.716;7.016;2022-11-15T05:09:18;12.00;99.90
71754;DHT22;59593;51.716;7.016;2022-11-15T05:11:44;11.90;99.90
71754;DHT22;59593;51.716;7.016;2022-11-15T05:14:10;11.90;99.90
71754;DHT22;59593;51.716;7.016;2022-11-15T05:16:35;11.80;99.90
71754;DHT22;59593;51.716;7.016;2022-11-15T05:19:01;11.80;99.90
71754;DHT22;59593;51.716;7.016;2022-11-15T05:21:27;11.90;99.90
71754;DHT22;59593;51.716;7.016;2022-11-15T05:23:53;11.90;99.90
71754;DHT22;59593;51.716;7.016;2022-11-15T05:26:18;11.80;99.90
71754;DHT22;59593;51.716;7.016;2022-11-15T05:28:45;11.90;99.90
71754;DHT22;59593;51.716;7.016;2022-11-15T05:31:13;11.90;99.90
71754;DHT22;59593;51.716;7.016;2022-11-15T05:33:40;12.00;99.90
71754;DHT22;59593;51.716;7.016;2022-11-15T05:36:43;12.00;99.90
71754;DHT22;59593;51.716;7.016;2022-11-15T05:39:11;12.00;99.90
71754;DHT22;59593;51.716;7.016;2022-11-15T05:41:41;12.10;99.90
71754;DHT22;59593;51.716;7.016;2022-11-15T05:44:10;12.10;99.90
71754;DHT22;59593;51.716;7.016;2022-11-15T05:46:37;12.20;99.90
71754;DHT22;59593;51.716;7.016;2022-11-15T05:49:07;12.30;99.90
71754;DHT22;59593;51.716;7.016;2022-11-15T05:51:35;12.40;99.90
71754;DHT22;59593;51.716;7.016;2022-11-15T05:54:01;12.40;99.90
71754;DHT22;59593;51.716;7.016;2022-11-15T05:56:28;12.40;99.90
71754;DHT22;59593;51.716;7.016;2022-11-15T05:58:55;12.50;99.90
71754;DHT22;59593;51.716;7.016;2022-11-15T06:01:22;12.50;99.90
71754;DHT22;59593;51.716;7.016;2022-11-15T06:03:49;12.60;99.90
71754;DHT22;59593;51.716;7.016;2022-11-15T06:06:15;12.60;99.90
71754;DHT22;59593;51.716;7.016;2022-11-15T06:08:40;12.70;99.90
71754;DHT22;59593;51.716;7.016;2022-11-15T06:11:07;12.60;99.90
71754;DHT22;59593;51.716;7.016;2022-11-15T06:13:33;12.60;99.90
71754;DHT22;59593;51.716;7.016;2022-11-15T06:15:59;12.50;99.90
71754;DHT22;59593;51.716;7.016;2022-11-15T06:18:24;12.50;99.90
71754;DHT22;59593;51.716;7.016;2022-11-15T06:20:50;12.50;99.90
71754;DHT22;59593;51.716;7.016;2022-11-15T06:23:16;12.40;99.90
71754;DHT22;59593;51.716;7.016;2022-11-15T06:25:41;12.40;99.90
71754;DHT22;59593;51.716;7.016;2022-11-15T06:28:07;12.40;99.90
71754;DHT22;59593;51.716;7.016;2022-11-15T06:30:33;12.30;99.90
71754;DHT22;59593;51.716;7.016;2022-11-15T06:33:00;12.40;99.90
71754;DHT22;59593;51.716;7.016;2022-11-15T06:35:27;12.40;99.90
71754;DHT22;59593;51.716;7.016;2022-11-15T06:37:53;12.40;99.90
71754;DHT22;59593;51.716;7.016;2022-11-15T06:40:18;12.40;99.90
71754;DHT22;59593;51.716;7.016;2022-11-15T06:42:44;12.40;99.90
71754;DHT22;59593;51.716;7.016;2022-11-15T06:45:09;12.50;99.90
71754;DHT22;59593;51.716;7.016;2022-11-15T06:47:35;12.50;99.90
71754;DHT22;59593;51.716;7.016;2022-11-15T06:50:00;12.50;99.90
71754;DHT22;59593;51.716;7.016;2022-11-15T06:52:26;12.50;99.90
71754;DHT22;59593;51.716;7.016;2022-11-15T06:54:52;12.50;99.90
71754;DHT22;59593;51.716;7.016;2022-11-15T06:57:17;12.50;99.90
71754;DHT22;59593;51.716;7.016;2022-11-15T06:59:43;12.40;99.90
71754;DHT22;59593;51.716;7.016;2022-11-15T07:02:13;12.50;99.90
71754;DHT22;59593;51.716;7.016;2022-11-15T07:04:39;12.50;99.90
71754;DHT22;59593;51.716;7.016;2022-11-15T07:07:04;12.50;99.90
71754;DHT22;59593;51.716;7.016;2022-11-15T07:09:30;12.50;99.90
71754;DHT22;59593;51.716;7.016;2022-11-15T07:11:55;12.50;99.90
71754;DHT22;59593;51.716;7.016;2022-11-15T07:14:21;12.50;99.90
71754;DHT22;59593;51.716;7.016;2022-11-15T07:16:46;12.50;99.90
71754;DHT22;59593;51.716;7.016;2022-11-15T07:19:12;12.50;99.90
71754;DHT22;59593;51.716;7.016;2022-11-15T07:21:37;12.60;99.90
71754;DHT22;59593;51.716;7.016;2022-11-15T07:24:03;12.70;99.90
71754;DHT22;59593;51.716;7.016;2022-11-15T07:26:29;12.70;99.90
71754;DHT22;59593;51.716;7.016;2022-11-15T07:28:55;12.70;99.90
71754;DHT22;59593;51.716;7.016;2022-11-15T07:31:20;12.70;99.90
71754;DHT22;59593;51.716;7.016;2022-11-15T07:33:46;12.70;99.90
71754;DHT22;59593;51.716;7.016;2022-11-15T07:36:12;12.70;99.90
71754;DHT22;59593;51.716;7.016;2022-11-15T07:38:37;12.70;99.90
71754;DHT22;59593;51.716;7.016;2022-11-15T07:41:04;12.70;99.90
71754;DHT22;59593;51.716;7.016;2022-11-15T07:43:30;12.60;99.90
71754;DHT22;59593;51.716;7.016;2022-11-15T07:45:58;12.50;99.90
71754;DHT22;59593;51.716;7.016;2022-11-15T07:48:23;12.50;99.90
71754;DHT22;59593;51.716;7.016;2022-11-15T07:50:49;12.50;99.90
71754;DHT22;59593;51.716;7.016;2022-11-15T07:53:15;12.50;99.90
71754;DHT22;59593;51.716;7.016;2022-11-15T07:55:41;12.50;99.90
71754;DHT22;59593;51.716;7.016;2022-11-15T07:58:09;12.60;99.90
71754;DHT22;59593;51.716;7.016;2022-11-15T08:00:36;12.60;99.90
71754;DHT22;59593;51.716;7.016;2022-11-15T08:03:16;12.70;99.90
71754;DHT22;59593;51.716;7.016;2022-11-15T08:05:42;12.80;99.90
71754;DHT22;59593;51.716;7.016;2022-11-15T08:08:09;12.80;99.90
71754;DHT22;59593;51.716;7.016;2022-11-15T08:10:36;12.80;99.90
71754;DHT22;59593;51.716;7.016;2022-11-15T08:13:07;12.90;99.90
71754;DHT22;59593;51.716;7.016;2022-11-15T08:15:34;12.90;99.90
71754;DHT22;59593;51.716;7.016;2022-11-15T08:18:02;12.90;99.90
71754;DHT22;59593;51.716;7.016;2022-11-15T08:20:29;12.90;99.90
71754;DHT22;59593;51.716;7.016;2022-11-15T08:22:59;12.90;99.90
71754;DHT22;59593;51.716;7.016;2022-11-15T08:25:26;13.00;99.90
71754;DHT22;59593;51.716;7.016;2022-11-15T08:27:53;13.00;99.90
71754;DHT22;59593;51.716;7.016;2022-11-15T08:30:20;13.00;99.90
71754;DHT22;59593;51.716;7.016;2022-11-15T08:32:45;13.10;99.90
71754;DHT22;59593;51.716;7.016;2022-11-15T08:35:11;13.10;99.90
71754;DHT22;59593;51.716;7.016;2022-11-15T08:37:37;13.10;99.90
71754;DHT22;59593;51.716;7.016;2022-11-15T08:40:03;13.00;99.90
71754;DHT22;59593;51.716;7.016;2022-11-15T08:42:29;13.00;99.90
71754;DHT22;59593;51.716;7.016;2022-11-15T08:44:55;13.00;99.90
71754;DHT22;59593;51.716;7.016;2022-11-15T08:47:20;13.00;99.90
71754;DHT22;59593;51.716;7.016;2022-11-15T08:49:46;12.90;99.90
71754;DHT22;59593;51.716;7.016;2022-11-15T08:52:11;12.80;99.90
71754;DHT22;59593;51.716;7.016;2022-11-15T08:54:37;12.70;99.90
71754;DHT22;59593;51.716;7.016;2022-11-15T08:57:02;12.60;99.90
71754;DHT22;59593;51.716;7.016;2022-11-15T08:59:28;12.60;99.90
71754;DHT22;59593;51.716;7.016;2022-11-15T09:01:54;12.50;99.90
71754;DHT22;59593;51.716;7.016;2022-11-15T09:04:19;12.50;99.90
71754;DHT22;59593;51.716;7.016;2022-11-15T09:06:45;12.40;99.90
71754;DHT22;59593;51.716;7.016;2022-11-15T09:09:11;12.50;99.90
71754;DHT22;59593;51.716;7.016;2022-11-15T09:11:36;12.50;99.90
71754;DHT22;59593;51.716;7.016;2022-11-15T09:14:02;12.50;99.90
71754;DHT22;59593;51.716;7.016;2022-11-15T09:16:27;12.50;99.90
71754;DHT22;59593;51.716;7.016;2022-11-15T09:18:53;12.50;99.90
71754;DHT22;59593;51.716;7.016;2022-11-15T09:21:20;12.50;99.90
71754;DHT22;59593;51.716;7.016;2022-11-15T09:23:45;12.40;99.90
71754;DHT22;59593;51.716;7.016;2022-11-15T09:26:11;12.40;99.90
71754;DHT22;59593;51.716;7.016;2022-11-15T09:28:37;12.40;99.90
71754;DHT22;59593;51.716;7.016;2022-11-15T09:31:05;12.40;99.90
71754;DHT22;59593;51.716;7.016;2022-11-15T09:33:31;12.40;99.90
71754;DHT22;59593;51.716;7.016;2022-11-15T09:36:01;12.50;99.90
71754;DHT22;59593;51.716;7.016;2022-11-15T09:38:27;12.50;99.90
71754;DHT22;59593;51.716;7.016;2022-11-15T09:49:26;12.60;99.90
71754;DHT22;59593;51.716;7.016;2022-11-15T09:51:54;12.70;99.90
71754;DHT22;59593;51.716;7.016;2022-11-15T09:54:30;12.80;99.90
71754;DHT22;59593;51.716;7.016;2022-11-15T09:57:02;12.90;99.90
71754;DHT22;59593;51.716;7.016;2022-11-15T10:04:57;12.80;99.90
71754;DHT22;59593;51.716;7.016;2022-11-15T10:08:01;12.90;99.90
71754;DHT22;59593;51.716;7.016;2022-11-15T10:10:38;12.90;99.90
71754;DHT22;59593;51.716;7.016;2022-11-15T10:13:06;13.00;99.90
71754;DHT22;59593;51.716;7.016;2022-11-15T10:15:35;13.10;99.90
71754;DHT22;59593;51.716;7.016;2022-11-15T10:20:50;13.40;99.90
71754;DHT22;59593;51.716;7.016;2022-11-15T10:23:20;13.60;99.90
71754;DHT22;59593;51.716;7.016;2022-11-15T10:25:47;13.80;99.90
71754;DHT22;59593;51.716;7.016;2022-11-15T10:28:21;13.90;99.90
71754;DHT22;59593;51.716;7.016;2022-11-15T10:30:49;14.00;99.90
71754;DHT22;59593;51.716;7.016;2022-11-15T10:33:26;14.10;99.90
71754;DHT22;59593;51.716;7.016;2022-11-15T10:41:17;14.70;99.90
71754;DHT22;59593;51.716;7.016;2022-11-15T10:43:44;14.40;99.90
71754;DHT22;59593;51.716;7.016;2022-11-15T10:46:22;14.10;99.90
71754;DHT22;59593;51.716;7.016;2022-11-15T10:48:48;14.40;99.90
71754;DHT22;59593;51.716;7.016;2022-11-15T10:51:26;15.00;99.90
71754;DHT22;59593;51.716;7.016;2022-11-15T10:53:58;15.20;99.90
71754;DHT22;59593;51.716;7.016;2022-11-15T10:56:26;15.20;99.90
71754;DHT22;59593;51.716;7.016;2022-11-15T10:58:57;15.60;99.90
71754;DHT22;59593;51.716;7.016;2022-11-15T11:01:25;15.60;99.90
71754;DHT22;59593;51.716;7.016;2022-11-15T11:04:03;15.90;99.90
71754;DHT22;59593;51.716;7.016;2022-11-15T11:06:29;16.00;99.90
71754;DHT22;59593;51.716;7.016;2022-11-15T11:09:01;15.90;99.90
71754;DHT22;59593;51.716;7.016;2022-11-15T11:25:03;16.80;99.90
71754;DHT22;59593;51.716;7.016;2022-11-15T11:30:17;17.10;99.90
71754;DHT22;59593;51.716;7.016;2022-11-15T11:43:47;18.00;99.90
71754;DHT22;59593;51.716;7.016;2022-11-15T11:51:51;17.50;99.90
71754;DHT22;59593;51.716;7.016;2022-11-15T11:57:11;17.70;99.90
71754;DHT22;59593;51.716;7.016;2022-11-15T11:59:55;17.60;99.90
71754;DHT22;59593;51.716;7.016;2022-11-15T12:02:36;17.80;99.90
71754;DHT22;59593;51.716;7.016;2022-11-15T12:05:26;17.80;99.90
71754;DHT22;59593;51.716;7.016;2022-11-15T12:07:56;17.50;99.90
71754;DHT22;59593;51.716;7.016;2022-11-15T12:10:29;17.10;99.90
71754;DHT22;59593;51.716;7.016;2022-11-15T12:13:17;17.20;99.90
71754;DHT22;59593;51.716;7.016;2022-11-15T12:18:28;17.30;99.90
71754;DHT22;59593;51.716;7.016;2022-11-15T12:23:32;19.00;99.90
71754;DHT22;59593;51.716;7.016;2022-11-15T12:26:16;19.60;99.90
71754;DHT22;59593;51.716;7.016;2022-11-15T12:28:59;19.30;99.90
71754;DHT22;59593;51.716;7.016;2022-11-15T12:33:56;18.40;99.90
71754;DHT22;59593;51.716;7.016;2022-11-15T12:41:21;19.30;99.90
71754;DHT22;59593;51.716;7.016;2022-11-15T12:43:48;19.30;99.90
71754;DHT22;59593;51.716;7.016;2022-11-15T13:12:56;17.90;99.90
71754;DHT22;59593;51.716;7.016;2022-11-15T13:15:54;18.20;99.90
71754;DHT22;59593;51.716;7.016;2022-11-15T13:18:40;17.90;99.90
71754;DHT22;59593;51.716;7.016;2022-11-15T13:21:20;18.30;99.90
71754;DHT22;59593;51.716;7.016;2022-11-15T13:24:09;18.60;99.90
71754;DHT22;59593;51.716;7.016;2022-11-15T13:26:38;19.00;99.90
71754;DHT22;59593;51.716;7.016;2022-11-15T13:29:12;19.00;99.90
71754;DHT22;59593;51.716;7.016;2022-11-15T13:31:43;19.20;99.90
71754;DHT22;59593;51.716;7.016;2022-11-15T13:34:28;19.30;99.90
71754;DHT22;59593;51.716;7.016;2022-11-15T13:36:54;18.80;99.90
71754;DHT22;59593;51.716;7.016;2022-11-15T13:39:27;18.10;99.90
71754;DHT22;59593;51.716;7.016;2022-11-15T13:41:53;17.10;99.90
71754;DHT22;59593;51.716;7.016;2022-11-15T13:44:22;17.10;99.90
71754;DHT22;59593;51.716;7.016;2022-11-15T13:46:47;17.10;99.90
71754;DHT22;59593;51.716;7.016;2022-11-15T13:49:13;16.80;99.90
71754;DHT22;59593;51.716;7.016;2022-11-15T13:54:17;16.20;99.90
71754;DHT22;59593;51.716;7.016;2022-11-15T13:56:47;15.90;99.90
71754;DHT22;59593;51.716;7.016;2022-11-15T13:59:27;15.90;99.90
71754;DHT22;59593;51.716;7.016;2022-11-15T14:01:55;15.80;99.90
71754;DHT22;59593;51.716;7.016;2022-11-15T14:04:23;15.40;99.90
71754;DHT22;59593;51.716;7.016;2022-11-15T14:06:53;15.40;99.90
71754;DHT22;59593;51.716;7.016;2022-11-15T14:09:32;15.40;99.90
71754;DHT22;59593;51.716;7.016;2022-11-15T14:12:00;15.30;99.90
71754;DHT22;59593;51.716;7.016;2022-11-15T14:14:28;15.20;99.90
71754;DHT22;59593;51.716;7.016;2022-11-15T14:16:56;14.90;99.90
71754;DHT22;59593;51.716;7.016;2022-11-15T14:24:35;14.70;99.90
71754;DHT22;59593;51.716;7.016;2022-11-15T14:29:46;14.40;99.90
71754;DHT22;59593;51.716;7.016;2022-11-15T14:32:18;14.30;99.90
71754;DHT22;59593;51.716;7.016;2022-11-15T14:34:45;14.20;99.90
71754;DHT22;59593;51.716;7.016;2022-11-15T14:37:29;14.10;99.90
71754;DHT22;59593;51.716;7.016;2022-11-15T14:39:58;14.10;99.90
71754;DHT22;59593;51.716;7.016;2022-11-15T14:42:24;14.10;99.90
71754;DHT22;59593;51.716;7.016;2022-11-15T14:44:51;14.00;99.90
71754;DHT22;59593;51.716;7.016;2022-11-15T14:47:17;14.00;99.90
71754;DHT22;59593;51.716;7.016;2022-11-15T14:49:43;14.10;99.90
71754;DHT22;59593;51.716;7.016;2022-11-15T14:52:26;14.00;99.90
71754;DHT22;59593;51.716;7.016;2022-11-15T14:54:53;14.00;99.90
71754;DHT22;59593;51.716;7.016;2022-11-15T14:57:19;14.00;99.90
71754;DHT22;59593;51.716;7.016;2022-11-15T14:59:45;14.10;99.90
71754;DHT22;59593;51.716;7.016;2022-11-15T15:02:20;14.00;99.90
71754;DHT22;59593;51.716;7.016;2022-11-15T15:04:47;14.00;99.90
71754;DHT22;59593;51.716;7.016;2022-11-15T15:07:13;13.90;99.90
71754;DHT22;59593;51.716;7.016;2022-11-15T15:09:39;13.90;99.90
71754;DHT22;59593;51.716;7.016;2022-11-15T15:12:19;13.80;99.90
71754;DHT22;59593;51.716;7.016;2022-11-15T15:14:46;13.70;99.90
71754;DHT22;59593;51.716;7.016;2022-11-15T15:17:12;13.70;99.90
71754;DHT22;59593;51.716;7.016;2022-11-15T15:19:38;13.60;99.90
71754;DHT22;59593;51.716;7.016;2022-11-15T15:22:03;13.60;99.90
71754;DHT22;59593;51.716;7.016;2022-11-15T15:24:29;13.70;99.90
71754;DHT22;59593;51.716;7.016;2022-11-15T15:26:55;13.60;99.90
71754;DHT22;59593;51.716;7.016;2022-11-15T15:29:20;13.50;99.90
71754;DHT22;59593;51.716;7.016;2022-11-15T15:31:46;13.60;99.90
71754;DHT22;59593;51.716;7.016;2022-11-15T15:34:11;13.50;99.90
71754;DHT22;59593;51.716;7.016;2022-11-15T15:36:37;13.50;99.90
71754;DHT22;59593;51.716;7.016;2022-11-15T15:39:02;13.50;99.90
71754;DHT22;59593;51.716;7.016;2022-11-15T15:41:28;13.40;99.90
71754;DHT22;59593;51.716;7.016;2022-11-15T15:43:54;13.50;99.90
71754;DHT22;59593;51.716;7.016;2022-11-15T15:46:19;13.40;99.90
71754;DHT22;59593;51.716;7.016;2022-11-15T15:48:46;13.30;99.90
71754;DHT22;59593;51.716;7.016;2022-11-15T15:51:12;13.50;99.90
71754;DHT22;59593;51.716;7.016;2022-11-15T15:53:38;13.50;99.90
71754;DHT22;59593;51.716;7.016;2022-11-15T15:56:04;13.40;99.90
71754;DHT22;59593;51.716;7.016;2022-11-15T15:58:29;13.30;99.90
71754;DHT22;59593;51.716;7.016;2022-11-15T16:00:57;13.30;99.90
71754;DHT22;59593;51.716;7.016;2022-11-15T16:03:22;13.30;99.90
71754;DHT22;59593;51.716;7.016;2022-11-15T16:05:50;13.40;99.90
71754;DHT22;59593;51.716;7.016;2022-11-15T16:08:20;13.30;99.90
71754;DHT22;59593;51.716;7.016;2022-11-15T16:10:46;13.30;99.90
71754;DHT22;59593;51.716;7.016;2022-11-15T16:13:12;13.20;99.90
71754;DHT22;59593;51.716;7.016;2022-11-15T16:15:37;13.20;99.90
71754;DHT22;59593;51.716;7.016;2022-11-15T16:18:04;13.20;99.90
71754;DHT22;59593;51.716;7.016;2022-11-15T16:22:55;13.20;99.90
71754;DHT22;59593;51.716;7.016;2022-11-15T16:25:21;13.20;99.90
71754;DHT22;59593;51.716;7.016;2022-11-15T16:27:47;13.20;99.90
71754;DHT22;59593;51.716;7.016;2022-11-15T16:30:15;13.20;99.90
71754;DHT22;59593;51.716;7.016;2022-11-15T16:32:41;13.20;99.90
71754;DHT22;59593;51.716;7.016;2022-11-15T16:35:11;13.20;99.90
71754;DHT22;59593;51.716;7.016;2022-11-15T16:37:37;13.20;99.90
71754;DHT22;59593;51.716;7.016;2022-11-15T16:40:27;13.20;99.90
71754;DHT22;59593;51.716;7.016;2022-11-15T16:42:51;13.20;99.90
71754;DHT22;59593;51.716;7.016;2022-11-15T16:45:17;13.20;99.90
71754;DHT22;59593;51.716;7.016;2022-11-15T16:47:43;13.20;99.90
71754;DHT22;59593;51.716;7.016;2022-11-15T16:50:20;13.30;99.90
71754;DHT22;59593;51.716;7.016;2022-11-15T16:52:56;13.30;99.90
71754;DHT22;59593;51.716;7.016;2022-11-15T16:55:24;13.20;99.90
71754;DHT22;59593;51.716;7.016;2022-11-15T16:57:49;13.20;99.90
71754;DHT22;59593;51.716;7.016;2022-11-15T17:00:16;13.20;99.90
71754;DHT22;59593;51.716;7.016;2022-11-15T17:02:43;13.10;99.90
71754;DHT22;59593;51.716;7.016;2022-11-15T17:05:10;13.00;99.90
71754;DHT22;59593;51.716;7.016;2022-11-15T17:07:36;13.00;99.90
71754;DHT22;59593;51.716;7.016;2022-11-15T17:10:01;13.00;99.90
71754;DHT22;59593;51.716;7.016;2022-11-15T17:12:27;12.90;99.90
71754;DHT22;59593;51.716;7.016;2022-11-15T17:14:53;12.90;99.90
71754;DHT22;59593;51.716;7.016;2022-11-15T17:17:18;12.90;99.90
71754;DHT22;59593;51.716;7.016;2022-11-15T17:19:44;12.90;99.90
71754;DHT22;59593;51.716;7.016;2022-11-15T17:22:10;13.00;99.90
71754;DHT22;59593;51.716;7.016;2022-11-15T17:24:35;13.00;99.90
71754;DHT22;59593;51.716;7.016;2022-11-15T17:27:01;13.00;99.90
71754;DHT22;59593;51.716;7.016;2022-11-15T17:29:26;13.00;99.90
71754;DHT22;59593;51.716;7.016;2022-11-15T17:31:52;13.00;99.90
71754;DHT22;59593;51.716;7.016;2022-11-15T17:34:17;13.00;99.90
71754;DHT22;59593;51.716;7.016;2022-11-15T17:36:43;12.90;99.90
71754;DHT22;59593;51.716;7.016;2022-11-15T17:39:09;12.90;99.90
71754;DHT22;59593;51.716;7.016;2022-11-15T17:41:34;12.90;99.90
71754;DHT22;59593;51.716;7.016;2022-11-15T17:44:00;12.90;99.90
71754;DHT22;59593;51.716;7.016;2022-11-15T17:46:28;12.90;99.90
71754;DHT22;59593;51.716;7.016;2022-11-15T17:48:56;13.00;99.90
71754;DHT22;59593;51.716;7.016;2022-11-15T17:51:22;13.00;99.90
71754;DHT22;59593;51.716;7.016;2022-11-15T17:53:50;13.00;99.90
71754;DHT22;59593;51.716;7.016;2022-11-15T17:56:18;12.90;99.90